Time;durP1;ratioP1;P1;durP2;ratioP2;P2;SDS_P1;SDS_P2;PMS_P1;PMS_P2;Temp;Humidity;BMP_temperature;BMP_pressure;BME280_temperature;BME280_humidity;BME280_pressure;Samples;Min_cycle;Max_cycle;Signal;HPM_P1;HPM_P2
2023/04/23 00:03:46;;;;;;;0.97;0.57;;;;;;;;;;20823463;28;20226;-73
2023/04/23 00:13:48;;;;;;;1.00;0.50;;;;;;;;;;20840761;28;20271;-74
2023/04/23 00:23:50;;;;;;;1.13;0.73;;;;;;;;;;20904388;28;20253;-74
2023/04/23 00:33:52;;;;;;;0.90;0.50;;;;;;;;;;20904427;28;20640;-74
2023/04/23 00:43:53;;;;;;;0.83;0.67;;;;;;;;;;20869256;28;20214;-74
2023/04/23 00:53:56;;;;;;;0.73;0.50;;;15.70;99.90;;;;;;20901721;28;20232;-74
2023/04/23 01:03:58;;;;;;;0.40;0.40;;;;;;;;;;20901037;28;20229;-74
2023/04/23 01:14:00;;;;;;;1.67;0.70;;;;;;;;;;20903190;28;20205;-74
2023/04/23 01:24:05;;;;;;;0.97;0.60;;;;;;;;;;20898493;28;20217;-73
2023/04/23 01:34:07;;;;;;;1.00;0.60;;;15.60;99.90;;;;;;20883156;28;20291;-74
2023/04/23 01:44:09;;;;;;;1.20;0.70;;;;;;;;;;20900809;28;20222;-73
2023/04/23 01:54:11;;;;;;;1.03;0.50;;;;;;;;;;20911981;28;20201;-74
2023/04/23 02:04:13;;;;;;;0.83;0.50;;;;;;;;;;20898531;28;20248;-74
2023/04/23 02:14:16;;;;;;;0.60;0.40;;;;;;;;;;20914077;28;20350;-74
2023/04/23 02:24:17;;;;;;;0.70;0.57;;;;;;;;;;20912782;28;20222;-73
2023/04/23 02:34:19;;;;;;;0.80;0.60;;;;;;;;;;20912973;28;20240;-73
2023/04/23 02:44:21;;;;;;;0.73;0.50;;;;;;;;;;20913138;28;20651;-74
2023/04/23 02:54:23;;;;;;;1.30;0.50;;;;;;;;;;20910068;28;20251;-73
2023/04/23 03:04:24;;;;;;;0.77;0.40;;;;;;;;;;20892667;28;20221;-73
2023/04/23 03:14:26;;;;;;;0.43;0.40;;;;;;;;;;20909882;28;20198;-73
2023/04/23 03:24:30;;;;;;;0.50;0.50;;;;;;;;;;20908255;28;20213;-72
2023/04/23 03:34:33;;;;;;;0.70;0.50;;;;;;;;;;20923667;22;20233;-72
2023/04/23 03:44:34;;;;;;;1.07;0.50;;;;;;;;;;20904918;28;20248;-71
2023/04/23 03:54:36;;;;;;;0.40;0.30;;;;;;;;;;20954748;28;20209;-71
2023/04/23 04:04:51;;;;;;;0.73;0.50;;;;;;;;;;20953854;28;20301;-72
2023/04/23 04:14:52;;;;;;;0.50;0.33;;;;;;;;;;20972008;28;20279;-71
2023/04/23 04:24:55;;;;;;;0.67;0.47;;;;;;;;;;20997848;28;20290;-72
2023/04/23 04:34:56;;;;;;;0.60;0.47;;;;;;;;;;20985959;28;20221;-71
2023/04/23 04:44:58;;;;;;;0.93;0.50;;;;;;;;;;20967434;28;20240;-72
2023/04/23 04:55:00;;;;;;;0.87;0.47;;;;;;;;;;20984103;28;20197;-71
2023/04/23 05:05:02;;;;;;;0.33;0.33;;;;;;;;;;20983825;28;20217;-72
2023/04/23 05:15:04;;;;;;;0.60;0.50;;;14.00;99.90;;;;;;20965722;28;20697;-72
2023/04/23 05:25:06;;;;;;;0.47;0.43;;;14.00;99.90;;;;;;20933990;28;20574;-72
2023/04/23 05:35:08;;;;;;;0.90;0.43;;;;;;;;;;20974236;28;20221;-72
2023/04/23 05:45:10;;;;;;;1.10;0.50;;;;;;;;;;20920251;28;20285;-71
2023/04/23 05:55:14;;;;;;;1.00;0.50;;;;;;;;;;20886316;28;20685;-71
2023/04/23 06:05:16;;;;;;;2.57;0.60;;;;;;;;;;20874269;28;20222;-71
2023/04/23 06:15:17;;;;;;;0.53;0.40;;;;;;;;;;20854174;28;20226;-72
2023/04/23 06:25:19;;;;;;;1.50;1.27;;;;;;;;;;20815436;28;20264;-71
2023/04/23 06:35:21;;;;;;;0.90;0.50;;;;;;;;;;20855267;28;20221;-72
2023/04/23 06:45:24;;;;;;;0.93;0.80;;;;;;;;;;20963178;28;20274;-71
2023/04/23 06:55:26;;;;;;;1.17;0.53;;;;;;;;;;20944676;28;20213;-72
2023/04/23 07:05:27;;;;;;;0.60;0.50;;;;;;;;;;20931918;28;20979;-71
2023/04/23 07:15:29;;;;;;;1.27;0.60;;;;;;;;;;20923865;28;20691;-70
2023/04/23 07:25:31;;;;;;;1.10;0.53;;;;;;;;;;20934901;28;20225;-70
2023/04/23 07:35:33;;;;;;;1.13;0.70;;;;;;;;;;20932888;28;20248;-71
2023/04/23 07:45:34;;;;;;;0.87;0.53;;;;;;;;;;20889759;28;20254;-71
2023/04/23 07:55:36;;;;;;;1.27;0.63;;;;;;;;;;20862824;28;20209;-71
2023/04/23 08:05:40;;;;;;;0.80;0.67;;;;;;;;;;20914666;28;20267;-71
2023/04/23 08:15:45;;;;;;;0.50;0.50;;;;;;;;;;20891572;28;20684;-71
2023/04/23 08:25:47;;;;;;;0.87;0.60;;;;;;;;;;20850811;28;20218;-71
2023/04/23 08:35:49;;;;;;;1.30;0.87;;;;;;;;;;20862724;28;20218;-72
2023/04/23 08:45:50;;;;;;;0.77;0.70;;;;;;;;;;20877382;28;20229;-72
2023/04/23 08:55:52;;;;;;;0.77;0.60;;;;;;;;;;20888229;28;20284;-71
2023/04/23 09:05:55;;;;;;;0.70;0.50;;;17.00;99.90;;;;;;20865231;28;20226;-71
2023/04/23 09:15:57;;;;;;;1.70;0.67;;;;;;;;;;20897178;28;20283;-71
2023/04/23 09:25:59;;;;;;;0.63;0.60;;;;;;;;;;20797733;28;20555;-71
2023/04/23 09:36:22;;;;;;;1.03;0.60;;;;;;;;;;20855287;28;20264;-71
2023/04/23 09:46:33;;;;;;;1.10;0.70;;;;;;;;;;20901017;22;20700;-73
2023/04/23 09:56:35;;;;;;;1.37;0.80;;;;;;;;;;20889184;28;20213;-73
2023/04/23 10:06:37;;;;;;;0.73;0.50;;;;;;;;;;20897922;28;20268;-73
2023/04/23 10:16:39;;;;;;;1.00;0.70;;;;;;;;;;20915033;28;20291;-73
2023/04/23 10:26:42;;;;;;;1.10;0.70;;;;;;;;;;20926432;28;20260;-73
2023/04/23 10:36:43;;;;;;;0.87;0.50;;;;;;;;;;20912016;28;20680;-73
2023/04/23 10:46:53;;;;;;;2.63;0.67;;;;;;;;;;20913507;28;20271;-73
2023/04/23 10:56:58;;;;;;;0.83;0.50;;;;;;;;;;20911132;28;20217;-74
2023/04/23 11:07:09;;;;;;;1.40;0.80;;;;;;;;;;20911590;28;20279;-73
2023/04/23 11:17:12;;;;;;;0.97;0.67;;;;;;;;;;20911417;28;20221;-73
2023/04/23 11:27:15;;;;;;;1.07;0.60;;;;;;;;;;20909108;28;20247;-73
2023/04/23 11:37:17;;;;;;;2.27;0.60;;;18.70;99.90;;;;;;20907782;28;20213;-74
2023/04/23 11:47:19;;;;;;;0.50;0.43;;;;;;;;;;20908018;28;20218;-74
2023/04/23 11:57:21;;;;;;;2.17;0.50;;;;;;;;;;20905737;28;20701;-73
2023/04/23 12:07:31;;;;;;;0.97;0.53;;;20.20;99.90;;;;;;20907257;28;20198;-74
2023/04/23 12:17:33;;;;;;;0.50;0.37;;;;;;;;;;20871919;28;20218;-74
2023/04/23 12:27:43;;;;;;;0.53;0.50;;;19.50;99.90;;;;;;20905369;28;20221;-75
2023/04/23 12:37:45;;;;;;;0.43;0.40;;;;;;;;;;20902815;28;20218;-74
2023/04/23 12:47:47;;;;;;;0.60;0.30;;;;;;;;;;20902890;28;20296;-74
2023/04/23 12:57:49;;;;;;;0.40;0.30;;;;;;;;;;20903109;28;20652;-75
2023/04/23 13:07:52;;;;;;;0.60;0.40;;;;;;;;;;20903580;28;20233;-74
2023/04/23 13:17:54;;;;;;;0.60;0.33;;;;;;;;;;20915853;28;20296;-75
2023/04/23 13:27:55;;;;;;;0.43;0.20;;;;;;;;;;20884325;28;20264;-75
2023/04/23 13:37:58;;;;;;;0.27;0.27;;;;;;;;;;20900602;28;20228;-74
2023/04/23 13:48:01;;;;;;;0.40;0.30;;;;;;;;;;20905911;28;20852;-75
2023/04/23 13:58:05;;;;;;;0.20;0.20;;;20.30;99.90;;;;;;20912616;28;20224;-75
2023/04/23 14:08:07;;;;;;;1.00;0.30;;;;;;;;;;20914465;28;20263;-73
2023/04/23 14:18:09;;;;;;;0.30;0.30;;;;;;;;;;20910287;28;20215;-75
2023/04/23 14:28:23;;;;;;;0.40;0.30;;;;;;;;;;20907029;28;20624;-75
2023/04/23 14:38:25;;;;;;;0.50;0.30;;;;;;;;;;20916102;28;20251;-74
2023/04/23 14:48:28;;;;;;;0.20;0.20;;;;;;;;;;20908288;28;20242;-76
2023/04/23 14:58:29;;;;;;;0.50;0.33;;;;;;;;;;20909864;28;20273;-75
2023/04/23 15:08:31;;;;;;;0.20;0.20;;;;;;;;;;20909362;28;20289;-76
2023/04/23 15:18:33;;;;;;;0.17;0.17;;;;;;;;;;20908108;28;20643;-76
2023/04/23 15:28:35;;;;;;;0.50;0.23;;;;;;;;;;20906595;28;20198;-75
2023/04/23 15:38:36;;;;;;;0.57;0.30;;;;;;;;;;20906263;28;20287;-75
2023/04/23 15:48:41;;;;;;;0.53;0.40;;;;;;;;;;20906271;28;20230;-74
2023/04/23 15:58:43;;;;;;;0.37;0.30;;;;;;;;;;20906926;28;20623;-74
2023/04/23 16:08:45;;;;;;;1.30;0.30;;;;;;;;;;20854494;28;20562;-74
2023/04/23 16:18:47;;;;;;;1.17;0.30;;;;;;;;;;20880816;28;20233;-74
2023/04/23 16:28:51;;;;;;;0.33;0.30;;;;;;;;;;20904670;28;20736;-75
2023/04/23 16:38:56;;;;;;;0.20;0.20;;;18.30;99.90;;;;;;20867182;28;20221;-75
2023/04/23 16:48:58;;;;;;;1.17;0.40;;;;;;;;;;20898193;28;20213;-75
2023/04/23 16:58:59;;;;;;;0.20;0.20;;;;;;;;;;20879010;28;20218;-75
2023/04/23 17:09:03;;;;;;;0.40;0.40;;;18.00;99.90;;;;;;20899515;28;20237;-74
2023/04/23 17:19:06;;;;;;;1.43;0.30;;;;;;;;;;20898481;28;20213;-73
2023/04/23 17:29:09;;;;;;;0.30;0.30;;;;;;;;;;20910632;22;20237;-71
2023/04/23 17:39:11;;;;;;;0.30;0.30;;;;;;;;;;20897754;28;20226;-73
2023/04/23 17:49:13;;;;;;;138.00;67.57;;;;;;;;;;20896061;28;20681;-73
2023/04/23 17:59:16;;;;;;;2.07;0.93;;;;;;;;;;20897289;28;20209;-73
2023/04/23 18:09:17;;;;;;;0.87;0.53;;;;;;;;;;20896748;28;20263;-73
2023/04/23 18:19:19;;;;;;;0.50;0.40;;;;;;;;;;20894621;28;20233;-73
2023/04/23 18:29:21;;;;;;;0.40;0.30;;;;;;;;;;20880401;28;20217;-73
2023/04/23 18:39:22;;;;;;;0.77;0.33;;;;;;;;;;20908890;28;20361;-73
2023/04/23 18:49:44;;;;;;;0.20;0.20;;;16.90;99.90;;;;;;20910118;28;20268;-73
2023/04/23 18:59:45;;;;;;;0.40;0.30;;;;;;;;;;20909631;28;20218;-73
2023/04/23 19:09:47;;;;;;;0.60;0.40;;;;;;;;;;20845343;28;20218;-73
2023/04/23 19:19:49;;;;;;;0.90;0.40;;;;;;;;;;20822599;28;20721;-73
2023/04/23 19:29:53;;;;;;;0.80;0.40;;;;;;;;;;20824969;28;20513;-73
2023/04/23 19:39:55;;;;;;;0.47;0.30;;;;;;;;;;20824497;28;20713;-73
2023/04/23 19:49:57;;;;;;;0.67;0.53;;;;;;;;;;20891430;28;20240;-73
2023/04/23 19:59:59;;;;;;;0.30;0.30;;;;;;;;;;20904708;28;20271;-73
2023/04/23 20:10:01;;;;;;;0.53;0.27;;;;;;;;;;20902787;28;20220;-73
2023/04/23 20:20:05;;;;;;;0.40;0.30;;;;;;;;;;20900212;28;20214;-73
2023/04/23 20:30:08;;;;;;;0.43;0.30;;;;;;;;;;20902592;28;20675;-73
2023/04/23 20:40:10;;;;;;;0.50;0.37;;;;;;;;;;20902204;28;20213;-73
2023/04/23 20:50:12;;;;;;;0.20;0.20;;;15.80;99.90;;;;;;20903459;28;20202;-73
2023/04/23 21:00:15;;;;;;;0.77;0.30;;;;;;;;;;20900429;28;20346;-73
2023/04/23 21:10:17;;;;;;;0.50;0.30;;;;;;;;;;20900404;28;20190;-73
2023/04/23 21:20:18;;;;;;;0.93;0.40;;;;;;;;;;20901078;28;20283;-73
2023/04/23 21:30:36;;;;;;;0.33;0.33;;;;;;;;;;20900750;28;20587;-73
2023/04/23 21:40:38;;;;;;;0.23;0.23;;;;;;;;;;20899962;28;20213;-73
2023/04/23 21:50:40;;;;;;;0.60;0.27;;;;;;;;;;20900677;28;20240;-73
2023/04/23 22:00:43;;;;;;;0.97;0.40;;;;;;;;;;20899030;28;20587;-73
2023/04/23 22:10:44;;;;;;;0.77;0.37;;;;;;;;;;20908808;28;20210;-73
2023/04/23 22:20:49;;;;;;;0.30;0.30;;;;;;;;;;20914433;28;20230;-73
2023/04/23 22:30:51;;;;;;;0.30;0.30;;;;;;;;;;20912604;28;20228;-73
2023/04/23 22:41:07;;;;;;;0.77;0.47;;;;;;;;;;20913695;28;20214;-73
2023/04/23 22:51:13;;;;;;;0.30;0.30;;;15.20;99.90;;;;;;20879669;28;20202;-72
2023/04/23 23:01:15;;;;;;;0.53;0.30;;;;;;;;;;20912132;28;20229;-73
2023/04/23 23:11:17;;;;;;;1.63;0.40;;;;;;;;;;20910898;28;20198;-73
2023/04/23 23:21:18;;;;;;;0.73;0.40;;;;;;;;;;20909246;28;20258;-73
2023/04/23 23:31:24;;;;;;;0.30;0.30;;;;;;;;;;20924837;22;20302;-71
2023/04/23 23:41:26;;;;;;;0.30;0.30;;;;;;;;;;20813841;28;20273;-71
2023/04/23 23:51:28;;;;;;;1.30;0.50;;;;;;;;;;20811502;28;20206;-71
